Time;durP1;ratioP1;P1;durP2;ratioP2;P2;SDS_P1;SDS_P2;PMS_P1;PMS_P2;Temp;Humidity;BMP_temperature;BMP_pressure;BME280_temperature;BME280_humidity;BME280_pressure;Samples;Min_cycle;Max_cycle;Signal;HPM_P1;HPM_P2
2021/12/20 00:01:01;;;;;;;;;29.00;25.00;;;;;;;;4973562;28;45330;-78
2021/12/20 00:03:27;;;;;;;;;30.50;24.50;;;;;;;;4963741;28;46100;-78
2021/12/20 00:05:52;;;;;;;;;24.75;23.00;;;;;;;;4955081;28;45415;-78
2021/12/20 00:08:17;;;;;;;;;30.00;21.00;;;;;;;;4971096;28;45386;-78
2021/12/20 00:10:43;;;;;;;;;36.00;28.00;;;;;;;;4968619;28;46200;-78
2021/12/20 00:13:08;;;;;;;;;22.50;21.00;;;;;;;;4963497;28;45466;-78
2021/12/20 00:15:33;;;;;;;;;32.00;24.00;;;;;;;;4982242;28;45576;-78
2021/12/20 00:17:58;;;;;;;;;24.67;20.00;;;;;;;;4959993;28;45478;-77
2021/12/20 00:20:23;;;;;;;;;31.33;24.00;;;;;;;;4975578;28;45527;-78
2021/12/20 00:22:49;;;;;;;;;33.00;24.67;;;;;;;;4972265;28;46367;-78
2021/12/20 00:25:14;;;;;;;;;27.67;27.00;;;;;;;;4964525;28;45471;-77
2021/12/20 00:27:39;;;;;;;;;32.00;26.25;;;;;;;;4972802;28;45504;-78
2021/12/20 00:30:05;;;;;;;;;29.33;24.67;;;;;;;;4965897;28;45533;-78
2021/12/20 00:32:31;;;;;;;;;26.50;25.75;;;;;;;;4977608;28;45539;-76
2021/12/20 00:34:56;;;;;;;;;22.33;21.00;;;;;;;;4971622;28;46091;-76
2021/12/20 00:40:22;;;;;;;;;33.50;28.00;;;;;;;;4932288;28;45576;-76
2021/12/20 00:42:51;;;;;;;;;32.00;28.00;;;;;;;;4930902;28;45553;-77
2021/12/20 00:45:17;;;;;;;;;31.50;23.00;;;;;;;;4941940;28;45825;-78
2021/12/20 00:47:42;;;;;;;;;25.75;20.50;;;;;;;;4931340;28;45481;-78
2021/12/20 00:50:09;;;;;;;;;25.33;21.33;;;;;;;;4934074;28;45560;-78
2021/12/20 00:52:34;;;;;;;;;23.75;22.00;;;;;;;;4939186;28;48102;-76
2021/12/20 00:54:59;;;;;;;;;34.67;26.67;;;;;;;;4930006;28;45567;-75
2021/12/20 00:57:25;;;;;;;;;30.33;28.67;;;;;;;;4938582;28;45508;-78
2021/12/20 00:59:50;;;;;;;;;33.33;27.33;;;;;;;;4935596;28;49553;-78
2021/12/20 01:02:15;;;;;;;;;26.67;25.67;;;;;;;;4930255;28;46234;-78
2021/12/20 01:04:40;;;;;;;;;29.75;26.75;;;;;;;;4934999;28;45418;-78
2021/12/20 01:07:06;;;;;;;;;33.33;25.67;;;;;;;;4930369;28;45611;-78
2021/12/20 01:09:31;;;;;;;;;34.67;25.33;;;;;;;;4936708;28;45479;-77
2021/12/20 01:12:02;;;;;;;;;35.33;28.00;;;;;;;;4920738;28;45589;-78
2021/12/20 01:14:31;;;;;;;;;31.50;27.50;;;;;;;;4935164;28;45525;-78
2021/12/20 01:17:02;;;;;;;;;29.00;23.25;;;;;;;;4942888;28;45889;-76
2021/12/20 01:19:27;;;;;;;;;28.25;25.00;;;;;;;;4973224;28;45540;-78
2021/12/20 01:21:52;;;;;;;;;34.00;23.00;;;;;;;;4970910;28;45507;-78
2021/12/20 01:24:17;;;;;;;;;33.67;27.67;;;;;;;;4965925;28;45480;-78
2021/12/20 01:26:43;;;;;;;;;30.67;27.33;;;;;;;;4976013;28;45446;-78
2021/12/20 01:29:08;;;;;;;;;28.67;22.67;;;;;;;;4971175;28;45459;-78
2021/12/20 01:31:33;;;;;;;;;28.67;23.33;;;;;;;;4971440;28;45398;-78
2021/12/20 01:33:58;;;;;;;;;27.67;21.33;;;;;;;;4970063;28;45416;-78
2021/12/20 01:36:23;;;;;;;;;23.33;18.00;;;;;;;;4966259;28;45431;-76
2021/12/20 01:38:49;;;;;;;;;28.67;24.67;;;;;;;;4974756;28;45464;-78
2021/12/20 01:41:14;;;;;;;;;28.33;25.00;;;;;;;;4963974;28;45610;-77
2021/12/20 01:43:39;;;;;;;;;32.25;24.75;;;;;;;;4973725;28;45642;-77
2021/12/20 01:46:05;;;;;;;;;30.00;23.67;;;;;;;;4969942;28;45535;-78
2021/12/20 01:48:31;;;;;;;;;31.75;27.25;;;;;;;;4964128;28;45396;-75
2021/12/20 01:51:28;;;;;;;;;29.00;26.00;;;;;;;;4976130;28;46337;-78
2021/12/20 01:53:47;;;;;;;;;26.25;23.75;;;;;;;;4982067;28;46008;-78
2021/12/20 01:56:13;;;;;;;;;25.33;21.33;;;;;;;;4979882;28;45619;-79
2021/12/20 01:58:38;;;;;;;;;34.00;25.00;;;;;;;;4969997;28;45304;-76
2021/12/20 02:03:35;;;;;;;;;23.75;23.00;;;;;;;;4973057;28;45431;-78
2021/12/20 02:06:04;;;;;;;;;36.50;28.25;;;;;;;;4964581;28;45568;-75
2021/12/20 02:08:29;;;;;;;;;31.00;27.75;;;;;;;;4977033;28;45484;-76
2021/12/20 02:10:58;;;;;;;;;27.25;23.75;;;;;;;;4956998;28;47242;-76
2021/12/20 02:13:25;;;;;;;;;32.75;23.50;;;;;;;;4969989;28;45561;-75
2021/12/20 02:15:50;;;;;;;;;35.25;25.75;;;;;;;;4963806;28;45644;-78
2021/12/20 02:18:15;;;;;;;;;29.50;23.75;;;;;;;;4963164;28;45470;-79
2021/12/20 02:20:41;;;;;;;;;31.33;23.67;;;;;;;;4980265;28;45818;-78
2021/12/20 02:23:06;;;;;;;;;33.25;21.25;;;;;;;;4967713;28;45657;-78
2021/12/20 02:25:32;;;;;;;;;24.75;23.50;;;;;;;;4974036;28;45556;-78
2021/12/20 02:28:02;;;;;;;;;23.00;19.75;;;;;;;;4970682;28;45541;-78
2021/12/20 02:38:23;;;;;;;;;28.75;25.00;;;;;;;;4981166;28;45508;-78
2021/12/20 02:40:59;;;;;;;;;35.33;27.67;;;;;;;;4973532;28;46598;-78
2021/12/20 02:43:24;;;;;;;;;23.00;22.25;;;;;;;;4971300;28;45537;-78
2021/12/20 02:45:54;;;;;;;;;30.50;25.50;;;;;;;;4969137;28;45578;-78
2021/12/20 02:48:19;;;;;;;;;23.75;20.75;;;;;;;;4965855;28;45586;-78
2021/12/20 02:50:44;;;;;;;;;29.67;23.67;;;;;;;;4975777;28;46134;-78
2021/12/20 02:53:09;;;;;;;;;37.67;29.67;;;;;;;;4960290;28;45699;-78
2021/12/20 02:55:35;;;;;;;;;30.33;27.33;;;;;;;;4975538;28;45403;-78
2021/12/20 02:58:00;;;;;;;;;32.67;28.33;;;;;;;;4971322;28;45518;-75
2021/12/20 03:00:25;;;;;;;;;35.67;30.33;;;;;;;;4964850;28;46019;-78
2021/12/20 03:02:50;;;;;;;;;39.33;29.67;;;;;;;;4975368;28;45681;-78
2021/12/20 03:05:15;;;;;;;;;38.00;31.50;;;;;;;;4971311;28;45554;-78
2021/12/20 03:07:47;;;;;;;;;31.00;26.67;;;;;;;;4976983;28;45564;-77
2021/12/20 03:10:13;;;;;;;;;44.25;28.75;;;;;;;;4968432;28;45561;-78
2021/12/20 03:12:38;;;;;;;;;34.00;28.50;;;;;;;;4967510;28;45500;-77
2021/12/20 03:15:11;;;;;;;;;45.50;33.25;;;;;;;;4978130;28;45499;-78
2021/12/20 03:17:36;;;;;;;;;43.25;32.25;;;;;;;;4968792;28;45482;-78
2021/12/20 03:20:02;;;;;;;;;37.75;32.25;;;;;;;;4977728;28;47878;-75
2021/12/20 03:22:28;;;;;;;;;40.75;33.00;;;;;;;;4970812;28;45560;-76
2021/12/20 03:24:53;;;;;;;;;39.00;31.33;;;;;;;;4965492;28;45443;-76
2021/12/20 03:27:18;;;;;;;;;35.33;30.00;;;;;;;;4978705;28;45639;-78
2021/12/20 03:29:43;;;;;;;;;40.67;33.00;;;;;;;;4967018;28;46472;-77
2021/12/20 03:32:09;;;;;;;;;40.33;30.67;;;;;;;;4970015;28;45599;-78
2021/12/20 03:34:34;;;;;;;;;42.67;35.67;;;;;;;;4972449;28;45593;-78
2021/12/20 03:36:59;;;;;;;;;37.00;34.00;;;;;;;;4967233;28;45618;-78
2021/12/20 03:39:24;;;;;;;;;40.00;36.00;;;;;;;;4976243;28;45486;-77
2021/12/20 03:41:50;;;;;;;;;49.33;34.00;;;;;;;;4969744;28;45503;-78
2021/12/20 03:44:16;;;;;;;;;42.25;35.50;;;;;;;;4974883;28;45633;-77
2021/12/20 03:46:41;;;;;;;;;46.25;36.75;;;;;;;;4968278;28;45319;-77
2021/12/20 03:49:07;;;;;;;;;50.67;37.00;;;;;;;;4967409;28;45555;-77
2021/12/20 03:51:32;;;;;;;;;46.00;38.00;;;;;;;;4963289;28;45582;-78
2021/12/20 03:53:57;;;;;;;;;38.50;35.25;;;;;;;;4967131;28;45530;-77
2021/12/20 03:56:23;;;;;;;;;49.25;37.00;;;;;;;;4970359;28;45402;-77
2021/12/20 03:58:48;;;;;;;;;34.33;27.33;;;;;;;;4972133;28;46260;-79
2021/12/20 04:01:13;;;;;;;;;36.00;33.00;;;;;;;;4964202;28;45511;-76
2021/12/20 04:03:39;;;;;;;;;43.00;35.00;;;;;;;;4969236;28;45535;-76
2021/12/20 04:06:06;;;;;;;;;47.25;35.75;;;;;;;;4968562;28;45301;-76
2021/12/20 04:08:32;;;;;;;;;51.50;35.75;;;;;;;;4975273;28;45509;-78
2021/12/20 04:10:58;;;;;;;;;41.75;33.00;;;;;;;;4972200;28;45639;-78
2021/12/20 04:13:23;;;;;;;;;44.50;35.50;;;;;;;;4972430;28;45616;-77
2021/12/20 04:15:49;;;;;;;;;46.00;37.50;;;;;;;;4972318;28;45510;-78
2021/12/20 04:18:14;;;;;;;;;45.00;36.00;;;;;;;;4966400;28;45588;-77
2021/12/20 04:20:39;;;;;;;;;46.67;35.00;;;;;;;;4977236;28;45430;-78
2021/12/20 04:23:04;;;;;;;;;45.67;34.67;;;;;;;;4970769;28;45577;-77
2021/12/20 04:25:30;;;;;;;;;45.33;34.00;;;;;;;;4969114;28;45610;-77
2021/12/20 04:27:55;;;;;;;;;42.00;35.67;;;;;;;;4968658;28;46141;-77
2021/12/20 04:30:21;;;;;;;;;42.75;36.25;;;;;;;;4966360;28;45478;-77
2021/12/20 04:32:46;;;;;;;;;42.00;32.75;;;;;;;;4976391;28;45598;-77
2021/12/20 04:35:13;;;;;;;;;48.75;37.00;;;;;;;;4987459;28;45410;-78
2021/12/20 04:37:40;;;;;;;;;43.75;35.00;;;;;;;;4975128;28;46520;-78
2021/12/20 04:40:09;;;;;;;;;40.75;34.25;;;;;;;;4970148;28;45628;-77
2021/12/20 04:42:34;;;;;;;;;36.00;30.75;;;;;;;;4966681;28;45545;-77
2021/12/20 04:45:00;;;;;;;;;39.00;34.25;;;;;;;;4978988;28;45509;-77
2021/12/20 04:47:25;;;;;;;;;38.67;30.33;;;;;;;;4967265;28;46066;-77
2021/12/20 04:49:53;;;;;;;;;39.67;33.00;;;;;;;;4976537;28;45525;-77
2021/12/20 04:52:18;;;;;;;;;39.00;33.00;;;;;;;;4963079;28;45427;-78
2021/12/20 04:54:43;;;;;;;;;47.00;32.33;;;;;;;;4962484;28;45875;-77
2021/12/20 04:57:09;;;;;;;;;31.67;25.00;;;;;;;;4976765;28;46343;-77
2021/12/20 04:59:34;;;;;;;;;37.25;31.00;;;;;;;;4971339;28;45391;-78
2021/12/20 05:02:00;;;;;;;;;34.00;30.67;;;;;;;;4977536;28;45441;-78
2021/12/20 05:04:25;;;;;;;;;40.00;32.25;;;;;;;;4969284;28;45648;-77
2021/12/20 05:06:50;;;;;;;;;30.00;25.33;;;;;;;;4967098;28;47034;-78
2021/12/20 05:09:18;;;;;;;;;40.67;29.67;;;;;;;;4976288;28;45517;-78
2021/12/20 05:11:50;;;;;;;;;37.00;31.00;;;;;;;;4968099;28;45564;-78
2021/12/20 05:14:15;;;;;;;;;29.75;19.75;;;;;;;;4972453;28;45430;-77
2021/12/20 05:16:40;;;;;;;;;40.33;33.67;;;;;;;;4969611;28;45762;-78
2021/12/20 05:19:05;;;;;;;;;37.67;32.00;;;;;;;;4969280;28;45539;-77
2021/12/20 05:21:30;;;;;;;;;34.67;30.67;;;;;;;;4974582;28;45524;-78
2021/12/20 05:23:56;;;;;;;;;45.00;34.33;;;;;;;;4968528;28;45481;-78
2021/12/20 05:26:21;;;;;;;;;40.00;33.33;;;;;;;;4974022;28;45472;-77
2021/12/20 05:28:46;;;;;;;;;41.33;32.33;;;;;;;;4970179;28;45733;-78
2021/12/20 05:31:11;;;;;;;;;40.00;29.33;;;;;;;;4969564;28;45509;-78
2021/12/20 05:33:37;;;;;;;;;37.00;30.00;;;;;;;;4968046;28;45757;-77
2021/12/20 05:36:02;;;;;;;;;35.50;32.50;;;;;;;;4966006;28;46289;-77
2021/12/20 05:38:27;;;;;;;;;36.75;29.25;;;;;;;;4977978;28;45520;-77
2021/12/20 05:40:53;;;;;;;;;37.67;30.67;;;;;;;;4971315;28;45300;-77
2021/12/20 05:43:18;;;;;;;;;28.67;22.67;;;;;;;;4968105;28;45557;-77
2021/12/20 05:45:43;;;;;;;;;32.00;26.00;;;;;;;;4971363;28;48199;-77
2021/12/20 05:48:08;;;;;;;;;29.50;25.00;;;;;;;;4963618;28;45830;-76
2021/12/20 05:50:34;;;;;;;;;25.33;22.00;;;;;;;;4974743;28;45509;-77
2021/12/20 05:52:59;;;;;;;;;35.00;29.00;;;;;;;;4970424;28;45565;-76
2021/12/20 05:55:24;;;;;;;;;29.67;27.67;;;;;;;;4971463;28;46213;-77
2021/12/20 05:57:49;;;;;;;;;36.00;30.33;;;;;;;;4962341;28;45506;-77
2021/12/20 06:00:17;;;;;;;;;29.50;24.50;;;;;;;;4963622;28;45761;-77
2021/12/20 06:02:43;;;;;;;;;33.50;28.00;;;;;;;;4960175;28;45544;-77
2021/12/20 06:05:09;;;;;;;;;35.25;30.00;;;;;;;;4965588;28;46162;-77
2021/12/20 06:07:38;;;;;;;;;28.25;27.25;;;;;;;;4971750;28;45834;-77
2021/12/20 06:10:03;;;;;;;;;31.00;27.75;;;;;;;;4966983;28;45467;-76
2021/12/20 06:12:29;;;;;;;;;30.25;26.00;;;;;;;;4965325;28;45772;-76
2021/12/20 06:14:54;;;;;;;;;30.33;24.33;;;;;;;;4975089;28;47219;-77
2021/12/20 06:17:19;;;;;;;;;33.33;26.67;;;;;;;;4967852;28;45678;-76
2021/12/20 06:19:45;;;;;;;;;30.75;25.75;;;;;;;;4966406;28;45375;-77
2021/12/20 06:22:10;;;;;;;;;30.33;27.67;;;;;;;;4963971;28;45597;-76
2021/12/20 06:24:36;;;;;;;;;37.00;29.25;;;;;;;;4964730;28;46400;-79
2021/12/20 06:27:01;;;;;;;;;31.25;25.75;;;;;;;;4977440;28;45429;-78
2021/12/20 06:29:27;;;;;;;;;36.33;28.00;;;;;;;;4972856;28;45620;-78
2021/12/20 06:31:52;;;;;;;;;38.67;24.00;;;;;;;;4975899;28;45557;-78
2021/12/20 06:34:17;;;;;;;;;36.67;26.00;;;;;;;;4967161;28;45967;-78
2021/12/20 06:36:43;;;;;;;;;33.75;26.50;;;;;;;;4960789;28;45518;-78
2021/12/20 06:39:08;;;;;;;;;34.33;25.00;;;;;;;;4971851;28;45623;-78
2021/12/20 06:41:33;;;;;;;;;31.67;27.00;;;;;;;;4968567;28;45598;-78
2021/12/20 06:44:01;;;;;;;;;31.67;29.67;;;;;;;;4972802;28;47272;-78
2021/12/20 06:46:26;;;;;;;;;33.25;26.25;;;;;;;;4967981;28;45604;-76
2021/12/20 06:48:52;;;;;;;;;35.50;28.25;;;;;;;;4966622;28;45464;-77
2021/12/20 06:51:17;;;;;;;;;32.67;26.67;;;;;;;;4977449;28;45627;-79
2021/12/20 06:53:43;;;;;;;;;35.00;28.00;;;;;;;;4982674;28;45547;-77
2021/12/20 06:56:08;;;;;;;;;36.75;29.00;;;;;;;;4985007;27;45397;-78
2021/12/20 06:58:33;;;;;;;;;38.75;27.50;;;;;;;;4966776;28;45508;-77
2021/12/20 07:00:59;;;;;;;;;38.00;28.33;;;;;;;;4963182;28;45749;-76
2021/12/20 07:03:24;;;;;;;;;34.00;28.75;;;;;;;;4980244;28;45465;-76
2021/12/20 07:05:50;;;;;;;;;37.00;28.75;;;;;;;;4970595;28;45470;-77
2021/12/20 07:08:15;;;;;;;;;32.25;25.00;;;;;;;;4975542;28;45564;-76
2021/12/20 07:10:40;;;;;;;;;37.67;26.00;;;;;;;;4976838;28;45738;-76
2021/12/20 07:13:06;;;;;;;;;29.50;21.25;;;;;;;;4965255;28;46066;-77
2021/12/20 07:15:32;;;;;;;;;31.50;22.00;;;;;;;;4970852;28;45468;-77
2021/12/20 07:17:57;;;;;;;;;30.75;22.75;;;;;;;;4966496;28;45407;-76
2021/12/20 07:20:23;;;;;;;;;29.50;22.50;;;;;;;;4971386;28;45586;-76
2021/12/20 07:22:48;;;;;;;;;30.67;22.67;;;;;;;;4973971;28;45686;-77
2021/12/20 07:25:13;;;;;;;;;31.67;27.67;;;;;;;;4965853;28;45485;-77
2021/12/20 07:27:39;;;;;;;;;27.67;23.00;;;;;;;;4972142;28;45504;-77
2021/12/20 07:30:04;;;;;;;;;32.50;26.75;;;;;;;;4964307;28;45577;-78
2021/12/20 07:32:30;;;;;;;;;32.75;27.75;;;;;;;;4967252;28;46668;-77
2021/12/20 07:34:55;;;;;;;;;35.50;24.50;;;;;;;;4969239;28;45930;-77
2021/12/20 07:37:22;;;;;;;;;36.00;27.50;;;;;;;;4966815;28;45512;-77
2021/12/20 07:39:47;;;;;;;;;31.50;24.25;;;;;;;;4988569;28;45431;-76
2021/12/20 07:42:12;;;;;;;;;28.67;26.67;;;;;;;;4972852;28;46670;-81
2021/12/20 07:44:38;;;;;;;;;44.25;28.75;;;;;;;;4986396;28;45485;-76
2021/12/20 07:47:03;;;;;;;;;29.25;22.00;;;;;;;;5016517;28;45493;-76
2021/12/20 07:49:28;;;;;;;;;31.75;27.50;;;;;;;;4970699;28;45685;-78
2021/12/20 07:51:54;;;;;;;;;29.25;22.25;;;;;;;;4972052;28;46027;-76
2021/12/20 07:54:19;;;;;;;;;28.50;23.75;;;;;;;;4969055;28;45852;-77
2021/12/20 07:56:44;;;;;;;;;24.00;20.25;;;;;;;;4991001;28;45608;-79
2021/12/20 07:59:10;;;;;;;;;28.00;24.33;;;;;;;;4965427;28;45375;-79
2021/12/20 08:01:35;;;;;;;;;24.00;21.00;;;;;;;;4972991;28;46456;-77
2021/12/20 08:04:01;;;;;;;;;24.00;16.75;;;;;;;;4982960;28;45318;-76
2021/12/20 08:06:27;;;;;;;;;27.75;17.00;;;;;;;;4966072;28;49762;-77
2021/12/20 08:08:52;;;;;;;;;24.25;14.75;;;;;;;;4975997;28;45354;-78
2021/12/20 08:11:17;;;;;;;;;24.00;22.67;;;;;;;;5028213;28;45394;-78
2021/12/20 08:13:45;;;;;;;;;21.75;17.75;;;;;;;;4992854;28;45648;-78
2021/12/20 08:16:11;;;;;;;;;18.50;15.00;;;;;;;;4969362;28;46700;-78
2021/12/20 08:18:37;;;;;;;;;21.25;18.00;;;;;;;;4966351;28;45631;-78
2021/12/20 08:21:02;;;;;;;;;20.50;15.25;;;;;;;;4975732;28;46269;-77
2021/12/20 08:23:28;;;;;;;;;24.00;19.00;;;;;;;;4974763;28;45442;-78
2021/12/20 08:25:53;;;;;;;;;26.33;18.33;;;;;;;;4995552;27;45665;-78
2021/12/20 08:28:18;;;;;;;;;20.00;18.33;;;;;;;;4970772;28;46524;-78
2021/12/20 08:30:43;;;;;;;;;26.33;19.33;;;;;;;;5002090;28;45573;-78
2021/12/20 08:33:08;;;;;;;;;26.00;20.00;;;;;;;;4988282;27;47506;-78
2021/12/20 08:35:34;;;;;;;;;23.67;18.00;;;;;;;;4962088;28;45691;-78
2021/12/20 08:37:59;;;;;;;;;25.50;15.50;;;;;;;;4969815;28;45473;-78
2021/12/20 08:40:25;;;;;;;;;22.25;20.00;;;;;;;;4981034;28;45655;-80
2021/12/20 08:42:50;;;;;;;;;32.50;21.50;;;;;;;;4975910;27;45578;-76
2021/12/20 08:45:17;;;;;;;;;28.00;25.33;;;;;;;;4976117;28;45449;-77
2021/12/20 08:47:43;;;;;;;;;28.00;26.25;;;;;;;;4967270;28;45775;-79
2021/12/20 08:50:13;;;;;;;;;23.00;21.00;;;;;;;;4968788;28;45461;-79
2021/12/20 08:52:38;;;;;;;;;29.50;23.75;;;;;;;;4974396;28;45548;-78
2021/12/20 08:55:04;;;;;;;;;26.00;19.67;;;;;;;;4967683;28;45433;-78
2021/12/20 08:57:29;;;;;;;;;30.75;22.75;;;;;;;;4969538;28;45852;-78
2021/12/20 08:59:54;;;;;;;;;26.00;25.00;;;;;;;;4965700;28;46423;-79
2021/12/20 09:02:19;;;;;;;;;22.33;20.00;;;;;;;;4969744;28;45518;-78
2021/12/20 09:04:45;;;;;;;;;29.33;20.33;;;;;;;;4970830;28;45783;-79
2021/12/20 09:07:15;;;;;;;;;30.50;23.00;;;;;;;;4964423;28;45650;-78
2021/12/20 09:09:44;;;;;;;;;33.00;27.00;;;;;;;;4974540;28;45488;-79
2021/12/20 09:12:09;;;;;;;;;30.75;25.00;;;;;;;;4967737;28;48323;-79
2021/12/20 09:14:34;;;;;;;;;32.00;25.25;;;;;;;;4974607;28;45644;-79
2021/12/20 09:17:00;;;;;;;;;32.25;24.50;;;;;;;;4971143;28;45750;-79
2021/12/20 09:19:26;;;;;;;;;34.50;26.25;;;;;;;;4972922;28;45694;-78
2021/12/20 09:21:51;;;;;;;;;30.33;26.33;;;;;;;;4973079;28;45519;-79
2021/12/20 09:24:16;;;;;;;;;28.00;26.33;;;;;;;;4969871;28;45387;-79
2021/12/20 09:26:41;;;;;;;;;29.75;24.25;;;;;;;;4975576;28;45656;-77
2021/12/20 09:29:07;;;;;;;;;35.67;26.00;;;;;;;;4971404;28;47354;-78
2021/12/20 09:31:32;;;;;;;;;29.67;25.67;;;;;;;;4970519;28;45453;-78
2021/12/20 09:33:58;;;;;;;;;28.67;24.67;;;;;;;;4974948;28;45554;-77
2021/12/20 09:36:28;;;;;;;;;29.25;22.50;;;;;;;;4964870;28;45491;-77
2021/12/20 09:38:54;;;;;;;;;31.50;24.75;;;;;;;;4977134;28;45530;-76
2021/12/20 09:41:59;;;;;;;;;30.75;25.50;;;;;;;;4978229;28;45862;-78
2021/12/20 09:44:05;;;;;;;;;32.75;22.00;;;;;;;;4955388;28;45798;-76
2021/12/20 09:46:31;;;;;;;;;32.50;22.75;;;;;;;;4963837;28;45575;-79
2021/12/20 09:48:57;;;;;;;;;34.00;24.25;;;;;;;;4963625;28;47017;-79
2021/12/20 09:51:23;;;;;;;;;28.50;21.00;;;;;;;;4951900;28;45542;-76
2021/12/20 09:53:48;;;;;;;;;32.00;26.50;;;;;;;;4958233;28;45561;-78
2021/12/20 09:56:14;;;;;;;;;37.00;28.33;;;;;;;;4976863;28;45402;-78
2021/12/20 09:58:40;;;;;;;;;37.75;26.75;;;;;;;;4970919;28;46417;-77
2021/12/20 10:01:06;;;;;;;;;42.25;30.50;;;;;;;;4966176;28;45383;-78
2021/12/20 10:03:32;;;;;;;;;33.75;27.75;;;;;;;;4974910;28;45885;-78
2021/12/20 10:05:57;;;;;;;;;32.75;27.50;;;;;;;;4971005;28;45644;-78
2021/12/20 10:08:40;;;;;;;;;38.75;25.75;;;;;;;;4971552;28;45867;-78
2021/12/20 10:11:07;;;;;;;;;32.25;28.75;;;;;;;;4955620;28;45566;-78
2021/12/20 10:13:34;;;;;;;;;30.75;27.50;;;;;;;;4962612;28;46555;-79
2021/12/20 10:16:00;;;;;;;;;29.00;27.50;;;;;;;;4961577;28;45707;-77
2021/12/20 10:18:26;;;;;;;;;29.50;27.75;;;;;;;;4955897;28;45731;-78
2021/12/20 10:20:53;;;;;;;;;28.75;28.00;;;;;;;;4957200;28;46078;-78
2021/12/20 10:23:22;;;;;;;;;30.75;26.25;;;;;;;;4952053;28;45645;-77
2021/12/20 10:25:49;;;;;;;;;30.75;25.75;;;;;;;;4969965;28;45705;-78
2021/12/20 10:28:22;;;;;;;;;35.00;25.25;;;;;;;;4962307;28;45544;-78
2021/12/20 10:31:07;;;;;;;;;27.00;21.75;;;;;;;;4956621;28;46143;-78
2021/12/20 10:33:33;;;;;;;;;35.75;25.00;;;;;;;;4979665;28;45438;-76
2021/12/20 10:36:04;;;;;;;;;36.50;28.25;;;;;;;;4961097;28;45457;-76
2021/12/20 10:38:33;;;;;;;;;39.25;28.25;;;;;;;;4954367;28;45585;-76
2021/12/20 10:41:04;;;;;;;;;33.75;27.00;;;;;;;;4954891;28;45414;-79
2021/12/20 10:43:36;;;;;;;;;33.75;25.00;;;;;;;;4955829;28;45402;-76
2021/12/20 10:46:09;;;;;;;;;26.00;26.00;;;;;;;;4955442;28;45619;-77
2021/12/20 10:48:34;;;;;;;;;29.50;23.25;;;;;;;;4955410;28;45540;-78
2021/12/20 10:51:00;;;;;;;;;28.25;23.00;;;;;;;;4960151;28;45694;-77
2021/12/20 10:53:27;;;;;;;;;32.50;22.25;;;;;;;;4956279;28;45533;-77
2021/12/20 10:55:54;;;;;;;;;32.25;28.75;;;;;;;;4953516;28;45418;-78
2021/12/20 10:58:19;;;;;;;;;24.50;21.25;;;;;;;;4954546;28;46542;-78
2021/12/20 11:00:45;;;;;;;;;31.33;21.33;;;;;;;;4954298;28;45945;-77
2021/12/20 11:05:45;;;;;;;;;33.00;24.00;;;;;;;;4967982;28;45378;-78
2021/12/20 11:11:08;;;;;;;;;32.25;28.00;;;;;;;;4977272;28;46065;-78
2021/12/20 11:13:40;;;;;;;;;31.50;24.25;;;;;;;;4963507;28;45605;-79
2021/12/20 11:16:26;;;;;;;;;23.75;20.50;;;;;;;;4969709;28;45644;-78
2021/12/20 11:19:10;;;;;;;;;31.00;22.50;;;;;;;;4971735;28;45752;-78
2021/12/20 11:21:35;;;;;;;;;28.50;23.25;;;;;;;;4967313;28;45816;-77
2021/12/20 11:24:01;;;;;;;;;24.00;18.00;;;;;;;;4967854;28;45414;-77
2021/12/20 11:26:29;;;;;;;;;29.50;22.00;;;;;;;;4978671;28;45393;-77
2021/12/20 11:28:55;;;;;;;;;28.75;24.50;;;;;;;;4979357;28;45738;-78
2021/12/20 11:31:20;;;;;;;;;29.50;23.75;;;;;;;;4974745;28;45541;-77
2021/12/20 11:33:46;;;;;;;;;20.75;15.00;;;;;;;;4972855;28;45460;-78
2021/12/20 11:36:12;;;;;;;;;25.33;22.67;;;;;;;;4967350;28;45376;-77
2021/12/20 11:38:37;;;;;;;;;23.00;21.00;;;;;;;;4978529;28;48131;-78
2021/12/20 11:41:02;;;;;;;;;22.75;20.75;;;;;;;;4973287;28;45413;-78
2021/12/20 11:43:28;;;;;;;;;24.75;20.00;;;;;;;;4968807;28;45375;-78
2021/12/20 11:45:54;;;;;;;;;18.00;16.75;;;;;;;;4965683;28;45487;-78
2021/12/20 11:48:21;;;;;;;;;26.50;20.50;;;;;;;;4965651;28;48636;-78
2021/12/20 11:50:46;;;;;;;;;24.50;20.50;;;;;;;;4968208;28;45888;-78
2021/12/20 11:53:13;;;;;;;;;28.00;21.33;;;;;;;;4969617;28;45504;-77
2021/12/20 11:55:46;;;;;;;;;20.75;18.00;;;;;;;;4957635;28;45375;-77
2021/12/20 11:58:27;;;;;;;;;17.50;15.75;;;;;;;;4968977;28;45536;-77
2021/12/20 12:00:54;;;;;;;;;18.75;13.75;;;;;;;;4980279;28;45824;-78
2021/12/20 12:03:22;;;;;;;;;17.75;15.00;;;;;;;;4968423;28;45543;-78
2021/12/20 12:05:54;;;;;;;;;24.25;14.50;;;;;;;;4955984;28;45534;-78
2021/12/20 12:08:25;;;;;;;;;19.00;13.50;;;;;;;;4970752;28;46420;-77
2021/12/20 12:10:52;;;;;;;;;17.00;13.75;;;;;;;;4968898;28;45672;-76
2021/12/20 12:13:19;;;;;;;;;20.25;14.25;;;;;;;;4976730;28;45635;-77
2021/12/20 12:16:03;;;;;;;;;16.50;13.00;;;;;;;;4970128;28;45653;-77
2021/12/20 12:18:45;;;;;;;;;14.25;13.00;;;;;;;;4959742;28;47314;-78
2021/12/20 12:21:39;;;;;;;;;15.00;13.75;;;;;;;;4963360;28;46012;-78
2021/12/20 12:24:14;;;;;;;;;19.25;13.25;;;;;;;;4964907;28;45514;-77
2021/12/20 12:26:43;;;;;;;;;13.75;12.00;;;;;;;;4969338;28;46473;-77
2021/12/20 12:29:16;;;;;;;;;14.25;12.75;;;;;;;;4959283;28;47585;-77
2021/12/20 12:32:02;;;;;;;;;12.00;11.50;;;;;;;;4978770;28;46096;-77
2021/12/20 12:34:41;;;;;;;;;15.50;14.75;;;;;;;;4966303;28;45619;-77
2021/12/20 12:37:21;;;;;;;;;15.00;12.00;;;;;;;;4965406;28;45596;-77
2021/12/20 12:39:46;;;;;;;;;21.25;16.25;;;;;;;;4965423;28;45611;-77
2021/12/20 12:42:12;;;;;;;;;18.33;17.00;;;;;;;;4973762;28;45523;-76
2021/12/20 12:44:46;;;;;;;;;22.00;18.33;;;;;;;;4966439;28;45478;-76
2021/12/20 12:47:13;;;;;;;;;19.25;16.50;;;;;;;;4969249;28;45370;-77
2021/12/20 12:49:44;;;;;;;;;19.75;17.25;;;;;;;;4968346;28;46265;-77
2021/12/20 12:52:11;;;;;;;;;19.75;17.25;;;;;;;;4959265;28;45447;-76
2021/12/20 12:54:44;;;;;;;;;27.25;20.00;;;;;;;;4960105;28;45482;-76
2021/12/20 12:57:12;;;;;;;;;16.25;15.25;;;;;;;;4965931;28;45411;-76
2021/12/20 12:59:54;;;;;;;;;28.50;18.50;;;;;;;;4967619;28;48489;-76
2021/12/20 13:02:24;;;;;;;;;20.25;17.50;;;;;;;;4953771;28;46267;-78
2021/12/20 13:04:53;;;;;;;;;21.75;18.75;;;;;;;;4968439;28;45363;-76
2021/12/20 13:07:22;;;;;;;;;19.25;16.50;;;;;;;;4958601;28;45708;-77
2021/12/20 13:09:48;;;;;;;;;15.75;14.75;;;;;;;;4977636;28;46823;-79
2021/12/20 13:12:27;;;;;;;;;26.00;18.50;;;;;;;;4954567;28;46348;-78
2021/12/20 13:14:56;;;;;;;;;21.50;14.75;;;;;;;;4963631;28;45630;-77
2021/12/20 13:17:33;;;;;;;;;16.00;14.75;;;;;;;;4954976;28;45490;-77
2021/12/20 13:22:56;;;;;;;;;20.75;18.75;;;;;;;;4968474;28;45959;-76
2021/12/20 13:25:37;;;;;;;;;24.75;17.25;;;;;;;;4958178;28;45496;-78
2021/12/20 13:28:03;;;;;;;;;19.25;15.50;;;;;;;;4963574;28;45646;-78
2021/12/20 13:30:32;;;;;;;;;17.75;13.75;;;;;;;;4965471;28;46600;-76
2021/12/20 13:32:58;;;;;;;;;19.50;18.50;;;;;;;;4965820;28;45458;-76
2021/12/20 13:35:23;;;;;;;;;24.25;19.00;;;;;;;;4970823;28;45471;-78
2021/12/20 13:37:50;;;;;;;;;22.50;17.75;;;;;;;;4967465;28;45320;-79
2021/12/20 13:40:15;;;;;;;;;18.25;16.00;;;;;;;;4955822;28;46296;-77
2021/12/20 13:42:48;;;;;;;;;19.00;17.75;;;;;;;;4960687;28;45494;-76
2021/12/20 13:45:13;;;;;;;;;20.00;18.00;;;;;;;;4966322;28;45879;-77
2021/12/20 13:47:40;;;;;;;;;14.00;14.00;;;;;;;;4954945;28;45476;-76
2021/12/20 13:50:15;;;;;;;;;25.00;18.00;;;;;;;;4967170;28;45509;-77
2021/12/20 13:52:45;;;;;;;;;19.25;18.00;;;;;;;;4956868;28;46075;-77
2021/12/20 13:55:10;;;;;;;;;21.00;17.50;;;;;;;;4964441;28;45415;-77
2021/12/20 13:57:36;;;;;;;;;18.00;15.00;;;;;;;;4965542;28;45363;-77
2021/12/20 14:00:24;;;;;;;;;21.75;14.00;;;;;;;;4965526;28;45864;-77
2021/12/20 14:02:50;;;;;;;;;21.00;16.50;;;;;;;;4966354;28;45904;-77
2021/12/20 14:05:21;;;;;;;;;18.00;13.75;;;;;;;;4969279;28;45549;-77
2021/12/20 14:07:51;;;;;;;;;16.25;12.75;;;;;;;;4966947;28;45409;-78
2021/12/20 14:10:26;;;;;;;;;18.25;13.25;;;;;;;;4997746;28;45462;-77
2021/12/20 14:13:00;;;;;;;;;15.75;14.75;;;;;;;;4958498;28;45377;-78
2021/12/20 14:15:30;;;;;;;;;13.00;13.00;;;;;;;;4960914;28;46056;-78
2021/12/20 14:18:03;;;;;;;;;12.00;12.00;;;;;;;;4980218;28;45701;-79
2021/12/20 14:20:35;;;;;;;;;18.25;15.50;;;;;;;;4976469;28;46527;-78
2021/12/20 14:23:00;;;;;;;;;18.25;14.75;;;;;;;;4995020;27;46007;-78
2021/12/20 14:25:36;;;;;;;;;14.33;12.33;;;;;;;;4970741;28;45440;-78
2021/12/20 14:28:06;;;;;;;;;14.50;14.50;;;;;;;;4970358;28;45481;-78
2021/12/20 14:30:31;;;;;;;;;13.50;13.50;;;;;;;;4963352;28;46269;-78
2021/12/20 14:32:57;;;;;;;;;14.50;14.50;;;;;;;;4975577;27;46568;-78
2021/12/20 14:35:23;;;;;;;;;23.33;16.33;;;;;;;;4963527;28;45497;-78
2021/12/20 14:37:49;;;;;;;;;18.75;15.00;;;;;;;;4971620;28;45551;-77